Flight Track Log - Related Links

Times and Time Zones

All times are in EDT time to prevent confusion due to time zone crossing. See the EJA396 flight status page for this flight to view local times or setup timezone preferences in your user account.

Time Position Orientation Groundspeed Altitude Reporting Facility
EDT Latitude Longitude Course Direction KTS MPH feet Rate Location/Type
Fri 08:52:59 AM 32.3667 -64.6833 327° Northwest 171 197 2,000  Level New York Oceanic (ODAPS)
Fri 08:56:20 AM 32.3667 -64.6833 327° Northwest 171 197 10,000 2,143 Climbing New York Oceanic (ODAPS)
Fri 08:56:43 AM 32.6500 -64.9000 327° Northwest 399 459 10,000 784 Level New York Oceanic (ODAPS)
Fri 08:58:53 AM 32.6500 -64.9000 327° Northwest 399 459 12,000 -3,504 Climbing New York Oceanic (ODAPS)
Fri 08:59:00 AM 32.6500 -64.9000 327° Northwest 171 197 2,000 -8,955 Descending FlightAware Transoceanic
Fri 09:00:00 AM 32.7513 -64.9784 327° Northwest 171 197 2,000  Level FlightAware Transoceanic
Fri 09:01:00 AM 32.8525 -65.0569 327° Northwest 171 197 2,000 13,433 Level FlightAware Transoceanic
Fri 09:01:07 AM 32.6500 -64.9000 327° Northwest 399 459 17,000 8,000 Climbing New York Oceanic (ODAPS)
Fri 09:02:00 AM 32.9537 -65.1356 327° Northwest 171 197 10,000 -3,717 Descending FlightAware Transoceanic
Fri 09:03:00 AM 33.2991 -65.4059 327° Northwest 399 459 10,000  Level FlightAware Transoceanic
Fri 09:04:00 AM 33.3917 -65.4788 327° Northwest 399 459 10,000 1,000 Level FlightAware Transoceanic
Fri 09:05:00 AM 33.4842 -65.5518 327° Northwest 399 459 12,000 1,000 Climbing FlightAware Transoceanic
Fri 09:06:00 AM 33.5767 -65.6250 327° Northwest 399 459 12,000 2,500 Level FlightAware Transoceanic
Fri 09:07:00 AM 33.6691 -65.6984 327° Northwest 399 459 17,000 16,452 Climbing FlightAware Transoceanic
Fri 09:07:02 AM 32.6500 -64.9000 327° Northwest 417 480 29,000  Climbing New York Oceanic (ODAPS)
Fri 09:08:00 AM 33.7615 -65.7719 326° Northwest 399 459 17,000 -6,102 Descending FlightAware Transoceanic
Fri 09:09:00 AM 33.8538 -65.8456 326° Northwest 399 459 17,000  Level FlightAware Transoceanic
Fri 09:10:00 AM 33.9461 -65.9194 326° Northwest 399 459 17,000  Level FlightAware Transoceanic
Fri 09:11:00 AM 34.0384 -65.9934 326° Northwest 399 459 17,000  Level FlightAware Transoceanic
Fri 09:12:00 AM 34.1306 -66.0676 326° Northwest 399 459 17,000 6,000 Level FlightAware Transoceanic
Fri 09:13:00 AM 34.2909 -66.1969 326° Northwest 417 480 29,000 6,000 Climbing FlightAware Transoceanic
Fri 09:14:00 AM 34.3870 -66.2747 326° Northwest 417 480 29,000  Level FlightAware Transoceanic
Fri 09:15:00 AM 34.4830 -66.3528 326° Northwest 417 480 29,000 4,615 Level FlightAware Transoceanic
Fri 09:15:57 AM 32.6500 -64.9000 327° Northwest 417 480 38,000  Climbing New York Oceanic (ODAPS)
Fri 09:16:00 AM 34.5790 -66.4310 326° Northwest 417 480 29,000 -8,571 Descending FlightAware Transoceanic
Fri 09:17:00 AM 34.6749 -66.5094 326° Northwest 417 480 29,000  Level FlightAware Transoceanic
Fri 09:18:00 AM 34.7708 -66.5879 326° Northwest 417 480 29,000  Level FlightAware Transoceanic
Fri 09:19:00 AM 34.8667 -66.6667 323° Northwest 417 480 29,000  Level FlightAware Transoceanic
Fri 09:20:00 AM 34.9700 -66.7624 323° Northwest 417 480 29,000  Level FlightAware Transoceanic
Fri 09:21:00 AM 35.0732 -66.8584 323° Northwest 417 480 29,000 4,500 Level FlightAware Transoceanic
Fri 09:22:00 AM 35.1763 -66.9547 323° Northwest 417 480 38,000 4,500 Climbing FlightAware Transoceanic
Fri 09:23:00 AM 35.2794 -67.0512 323° Northwest 417 480 38,000  Level FlightAware Transoceanic
Fri 09:23:18 AM 34.8667 -66.6667 323° Northwest 455 524 38,000  Level New York Oceanic (ODAPS)
Fri 09:24:00 AM 35.3824 -67.1479 323° Northwest 417 480 38,000  Level FlightAware Transoceanic
Fri 09:25:00 AM 35.4853 -67.2449 322° Northwest 417 480 38,000  Level FlightAware Transoceanic
Fri 09:26:00 AM 35.5881 -67.3421 322° Northwest 417 480 38,000  Level FlightAware Transoceanic
Fri 09:27:00 AM 35.6909 -67.4396 322° Northwest 417 480 38,000  Level FlightAware Transoceanic
Fri 09:28:00 AM 35.7935 -67.5374 322° Northwest 417 480 38,000  Level FlightAware Transoceanic
Fri 09:29:00 AM 35.8668 -67.6073 322° Northwest 455 524 38,000  Level FlightAware Transoceanic
Fri 09:30:00 AM 35.9665 -67.7027 322° Northwest 455 524 38,000  Level FlightAware Transoceanic
Fri 09:31:00 AM 36.0660 -67.7983 322° Northwest 455 524 38,000  Level FlightAware Transoceanic
Fri 09:32:00 AM 36.1655 -67.8941 322° Northwest 455 524 38,000  Level FlightAware Transoceanic
Fri 09:33:00 AM 36.2648 -67.9902 322° Northwest 455 524 38,000  Level FlightAware Transoceanic
Fri 09:34:00 AM 36.3641 -68.0865 322° Northwest 455 524 38,000  Level FlightAware Transoceanic
Fri 09:35:00 AM 36.4634 -68.1831 322° Northwest 455 524 38,000  Level FlightAware Transoceanic
Fri 09:36:00 AM 36.5625 -68.2799 322° Northwest 455 524 38,000  Level FlightAware Transoceanic
Fri 09:37:00 AM 36.6616 -68.3770 322° Northwest 455 524 38,000  Level FlightAware Transoceanic
Fri 09:38:00 AM 36.7606 -68.4743 322° Northwest 455 524 38,000  Level FlightAware Transoceanic
Fri 09:39:00 AM 36.8595 -68.5719 322° Northwest 455 524 38,000  Level FlightAware Transoceanic
Fri 09:40:00 AM 36.9583 -68.6697 322° Northwest 455 524 38,000  Level FlightAware Transoceanic
Fri 09:41:00 AM 37.0571 -68.7678 322° Northwest 455 524 38,000  Level FlightAware Transoceanic
Fri 09:42:00 AM 37.1558 -68.8662 321° Northwest 455 524 38,000 1,967 Level FlightAware Transoceanic
Fri 09:42:01 AM 36.5667 -68.2833 322° Northwest 449 517 40,000  Climbing New York Oceanic (ODAPS)
Fri 09:43:00 AM 37.2543 -68.9648 321° Northwest 455 524 38,000 -1,008 Descending FlightAware Transoceanic
Fri 09:44:00 AM 37.3529 -69.0636 321° Northwest 455 524 38,000  Level FlightAware Transoceanic
Fri 09:45:00 AM 37.4513 -69.1627 321° Northwest 455 524 38,000  Level FlightAware Transoceanic
Fri 09:46:00 AM 37.5496 -69.2621 321° Northwest 455 524 38,000  Level FlightAware Transoceanic
Fri 09:47:00 AM 37.6479 -69.3617 321° Northwest 455 524 38,000 1,000 Level FlightAware Transoceanic
Fri 09:48:00 AM 37.8453 -69.5628 321° Northwest 449 517 40,000 1,000 Climbing FlightAware Transoceanic
Fri 09:49:00 AM 37.9431 -69.6630 321° Northwest 449 517 40,000  Level FlightAware Transoceanic
Fri 09:50:00 AM 38.0408 -69.7635 321° Northwest 449 517 40,000  Level FlightAware Transoceanic
Fri 09:51:00 AM 38.1384 -69.8643 321° Northwest 449 517 40,000  Level FlightAware Transoceanic
Fri 09:52:00 AM 38.2359 -69.9653 321° Northwest 449 517 40,000  Level FlightAware Transoceanic
Fri 09:53:00 AM 38.3333 -70.0667 305° West 449 517 40,000  Level FlightAware Transoceanic
Fri 09:54:00 AM 38.4054 -70.1958 305° West 449 517 40,000  Level FlightAware Transoceanic
Fri 09:55:00 AM 38.4774 -70.3252 305° West 449 517 40,000  Level FlightAware Transoceanic
Fri 09:55:32 AM 38.4208 -70.2347 305° West 448 516 40,000  Level New York Center
Fri 09:56:00 AM 38.5492 -70.4548 305° West 449 517 40,000  Level FlightAware Transoceanic
Fri 09:56:29 AM 38.4922 -70.3617 306° West 440 506 40,000  Level New York Center
Fri 09:57:00 AM 38.6209 -70.5847 305° West 449 517 40,000  Level FlightAware Transoceanic
Fri 09:57:31 AM 38.5531 -70.4939 300° West 440 506 40,000  Level New York Center
Fri 09:58:00 AM 38.6924 -70.7149 305° West 449 517 40,000  Level FlightAware Transoceanic
Fri 09:58:31 AM 38.6114 -70.6267 299° West 440 506 40,000  Level New York Center
Fri 09:59:00 AM 38.7638 -70.8453 305° West 449 517 40,000  Level FlightAware Transoceanic
Fri 09:59:31 AM 38.6719 -70.7622 300° West 440 506 40,000  Level New York Center
Fri 10:00:00 AM 38.8350 -70.9760 305° West 449 517 40,000 -103 Level FlightAware Transoceanic
Fri 10:00:29 AM 38.7322 -70.8981 300° West 440 506 39,900 -809 Descending New York Center
Fri 10:01:29 AM 38.7861 -71.0447 295° West 440 506 38,800 -1,190 Descending New York Center
Fri 10:02:30 AM 38.8506 -71.1783 302° West 440 506 37,500 -1,289 Descending New York Center
Fri 10:03:30 AM 38.9125 -71.3147 300° West 440 506 36,200 -1,279 Descending New York Center
Fri 10:04:32 AM 38.9681 -71.4514 298° West 440 506 34,900 -1,109 Descending New York Center
Fri 10:05:29 AM 39.0256 -71.5831 299° West 434 499 34,000 -462 Descending New York Center
Fri 10:06:29 AM 39.0847 -71.7200 299° West 433 498 34,000  Level New York Center
Fri 10:07:30 AM 39.1419 -71.8575 298° West 439 505 34,000  Level New York Center
Fri 10:08:30 AM 39.2011 -72.0003 298° West 439 505 34,000 -843 Level New York Center
Fri 10:09:31 AM 39.2578 -72.1381 298° West 444 511 32,300 -2,218 Descending New York Center
Fri 10:10:29 AM 39.3164 -72.2789 298° West 437 503 29,600 -2,746 Descending New York Center
Fri 10:11:29 AM 39.3708 -72.4169 297° West 437 503 26,900 -2,628 Descending New York Center
Fri 10:12:30 AM 39.4272 -72.5528 298° West 437 503 24,300 -2,529 Descending New York Center
Fri 10:13:30 AM 39.4814 -72.6806 299° West 431 496 21,800 -2,331 Descending New York Center
Fri 10:14:31 AM 39.5333 -72.8111 297° West 414 476 19,600 -2,269 Descending New York Center
Fri 10:15:29 AM 39.5814 -72.9283 298° West 393 452 17,300 -2,186 Descending New York Center
Fri 10:16:29 AM 39.6272 -73.0403 298° West 371 427 15,300 -1,983 Descending New York Center
Fri 10:17:30 AM 39.6728 -73.1522 298° West 360 414 13,300 -2,049 Descending New York Center
Fri 10:18:32 AM 39.7183 -73.2672 297° West 360 414 11,100 -1,700 Descending New York Center
Fri 10:19:30 AM 39.7561 -73.3603 298° West 334 384 9,900 -610 Descending New York Center
Fri 10:20:30 AM 39.7836 -73.4317 297° West 303 349 9,900  Level New York Center
Fri 10:21:29 AM 39.8231 -73.5306 297° West 280 322 9,900  Level New York Center
Fri 10:22:29 AM 39.8583 -73.6183 298° West 280 322 9,900 -298 Level New York Center
Fri 10:23:30 AM 39.8939 -73.7064 298° West 275 316 9,300 -836 Descending New York Center
Fri 10:24:31 AM 39.9331 -73.8028 298° West 275 316 8,200 -1,109 Descending New York Center
Fri 10:25:29 AM 39.9661 -73.8883 297° West 275 316 7,100 -1,008 Descending New York Center
Fri 10:26:30 AM 39.9975 -73.9683 297° West 270 311 6,200 -992 Descending New York Center
Fri 10:27:30 AM 40.0306 -74.0511 298° West 265 305 5,100 -1,091 Descending New York Center
Fri 10:28:31 AM 40.0675 -74.1478 297° West 265 305 4,000 -545 Descending New York Center
Fri 10:29:31 AM 40.1003 -74.2333 297° West 265 305 4,000  Level New York Center
Fri 10:30:30 AM 40.1331 -74.3192 297° West 265 305 4,000  Level New York Center
Fri 10:31:31 AM 40.1642 -74.3997 297° West 265 305 4,000  Level New York Center
Fri 10:31:57 AM 40.1833 -74.4500 297° West 267 307 4,000  Level New York TRACON

Login

Don't have an account? Register now (free) for customized features, flight alerts, and more!